createdAt,value
2022-09-02T00:00:44.045Z,74.88
2022-09-02T00:03:51.538Z,75.19
2022-09-02T00:06:59.723Z,74.79
2022-09-02T00:10:08.189Z,75.09
2022-09-02T00:13:15.770Z,74.88
2022-09-02T00:16:24.008Z,75.29
2022-09-02T00:19:31.763Z,75.23
2022-09-02T00:22:39.730Z,76.14
2022-09-02T00:25:48.799Z,76.99
2022-09-02T00:28:56.755Z,77.23
2022-09-02T00:32:04.729Z,77.44
2022-09-02T00:35:13.247Z,77.50
2022-09-02T00:38:21.218Z,77.40
2022-09-02T00:41:29.177Z,77.70
2022-09-02T00:44:37.659Z,76.92
2022-09-02T00:47:45.179Z,77.64
2022-09-02T00:50:53.446Z,78.59
2022-09-02T00:54:01.971Z,79.14
2022-09-02T00:57:09.872Z,79.14
2022-09-02T01:00:18.352Z,79.75
2022-09-02T01:03:26.212Z,80.19
2022-09-02T01:06:34.191Z,80.50
2022-09-02T01:09:42.393Z,80.46
2022-09-02T01:12:50.226Z,80.05
2022-09-02T01:15:57.820Z,80.05
2022-09-02T01:19:05.907Z,79.34
2022-09-02T01:22:14.298Z,80.16
2022-09-02T01:25:22.229Z,80.60
2022-09-02T01:28:30.197Z,80.80
2022-09-02T01:31:38.275Z,80.60
2022-09-02T01:34:46.006Z,80.09
2022-09-02T01:37:55.628Z,80.09
2022-09-02T01:41:04.111Z,80.50
2022-09-02T01:44:11.777Z,81.04
2022-09-02T01:47:19.890Z,82.10
2022-09-02T01:50:27.903Z,82.92
2022-09-02T01:53:35.512Z,83.16
2022-09-02T01:56:43.667Z,83.47
2022-09-02T01:59:52.057Z,83.67
2022-09-02T02:02:59.457Z,83.47
2022-09-02T02:06:08.007Z,83.37
2022-09-02T02:09:16.326Z,83.47
2022-09-02T02:12:23.798Z,83.47
2022-09-02T02:16:01.592Z,83.67
2022-09-02T02:19:09.822Z,83.87
2022-09-02T02:22:17.293Z,83.87
2022-09-02T02:25:25.695Z,83.78
2022-09-02T02:28:33.781Z,83.57
2022-09-02T02:31:41.707Z,83.37
2022-09-02T02:34:49.877Z,83.37
2022-09-02T02:37:57.248Z,83.23
2022-09-02T02:41:05.566Z,83.37
2022-09-02T02:44:13.712Z,83.57
2022-09-02T02:47:21.179Z,83.67
2022-09-02T02:50:29.038Z,83.57
2022-09-02T02:53:37.019Z,82.86
2022-09-02T02:56:44.877Z,83.06
2022-09-02T02:59:52.858Z,83.78
2022-09-02T03:03:00.852Z,84.22
2022-09-02T03:06:09.028Z,84.42
2022-09-02T03:09:16.945Z,84.53
2022-09-02T03:12:24.635Z,84.67
2022-09-02T03:15:32.781Z,84.67
2022-09-02T03:18:40.204Z,84.57
2022-09-02T03:21:48.174Z,84.88
2022-09-02T03:24:56.178Z,85.59
2022-09-02T03:28:04.086Z,85.53
2022-09-02T03:31:12.051Z,84.91
2022-09-02T03:34:19.378Z,84.50
2022-09-02T03:37:26.850Z,84.91
2022-09-02T03:40:34.983Z,85.53
2022-09-02T03:43:42.745Z,85.97
2022-09-02T03:46:50.590Z,86.59
2022-09-02T03:49:58.791Z,86.69
2022-09-02T03:53:06.329Z,87.00
2022-09-02T03:56:14.662Z,85.77
2022-09-02T03:59:22.944Z,85.67
2022-09-02T04:02:30.617Z,86.08
2022-09-02T04:05:38.906Z,86.12
2022-09-02T04:08:47.066Z,86.53
2022-09-02T04:11:54.489Z,86.73
2022-09-02T04:15:02.517Z,86.73
2022-09-02T04:18:10.827Z,86.83
2022-09-02T04:21:18.127Z,87.04
2022-09-02T04:24:26.206Z,86.83
2022-09-02T04:27:34.020Z,86.73
2022-09-02T04:30:41.617Z,86.83
2022-09-02T04:33:49.871Z,87.14
2022-09-02T04:36:57.921Z,87.04
2022-09-02T04:40:05.876Z,87.14
2022-09-02T04:43:14.094Z,86.94
2022-09-02T04:46:33.927Z,86.73
2022-09-02T04:49:26.675Z,86.73
2022-09-02T04:52:34.746Z,86.53
2022-09-02T04:55:42.595Z,86.73
2022-09-02T04:58:50.355Z,86.32
2022-09-02T05:01:58.259Z,86.49
2022-09-02T05:05:06.347Z,86.29
2022-09-02T05:08:14.136Z,86.08
2022-09-02T05:11:21.837Z,85.88
2022-09-02T05:14:30.880Z,86.18
2022-09-02T05:17:38.680Z,86.08
2022-09-02T05:20:46.589Z,85.88
2022-09-02T05:23:55.201Z,85.97
2022-09-02T05:27:02.812Z,85.88
2022-09-02T05:30:11.282Z,85.83
2022-09-02T05:33:20.122Z,85.53
2022-09-02T05:36:27.863Z,85.83
2022-09-02T05:39:36.074Z,85.53
2022-09-02T05:42:44.485Z,85.83
2022-09-02T05:45:53.101Z,85.79
2022-09-02T05:49:01.693Z,85.38
2022-09-02T05:52:10.210Z,84.83
2022-09-02T05:55:17.877Z,84.39
2022-09-02T05:58:26.109Z,83.87
2022-09-02T06:01:34.221Z,83.67
2022-09-02T06:04:42.161Z,83.53
2022-09-02T06:07:50.621Z,82.92
2022-09-02T06:10:58.352Z,82.68
2022-09-02T06:14:06.771Z,82.03
2022-09-02T06:17:14.843Z,81.62
2022-09-02T06:20:22.516Z,81.58
2022-09-02T06:23:30.956Z,80.73
2022-09-02T06:26:39.123Z,80.83
2022-09-02T06:29:47.324Z,80.18
2022-09-02T06:32:55.576Z,79.57
2022-09-02T06:36:03.598Z,79.53
2022-09-02T06:39:11.710Z,78.78
2022-09-02T06:42:20.360Z,78.55
2022-09-02T06:45:28.390Z,77.83
2022-09-02T06:48:36.526Z,77.70
2022-09-02T06:51:45.041Z,77.29
2022-09-02T06:54:53.090Z,77.05
2022-09-02T06:58:01.013Z,76.54
2022-09-02T07:01:09.083Z,75.90
2022-09-02T07:04:16.906Z,75.59
2022-09-02T07:07:25.295Z,75.29
2022-09-02T07:10:33.477Z,75.15
2022-09-02T07:13:41.748Z,75.25
2022-09-02T07:16:50.201Z,74.51
2022-09-02T07:19:58.107Z,74.57
2022-09-02T07:23:06.320Z,73.97
2022-09-02T07:26:14.450Z,73.43
2022-09-02T07:29:22.792Z,73.39
2022-09-02T07:32:30.952Z,72.55
2022-09-02T07:35:39.132Z,71.60
2022-09-02T07:38:47.634Z,70.56
2022-09-02T07:41:55.754Z,68.91
2022-09-02T07:45:03.855Z,68.47
2022-09-02T07:48:12.355Z,68.04
2022-09-02T07:51:20.087Z,67.19
2022-09-02T07:54:28.608Z,64.84
2022-09-02T07:57:36.781Z,62.80
2022-09-02T08:00:44.430Z,61.46
2022-09-02T08:03:53.149Z,61.43
2022-09-02T08:07:01.061Z,60.09
2022-09-02T08:10:09.161Z,60.29
2022-09-02T08:13:17.910Z,60.36
2022-09-02T08:16:25.585Z,59.33
2022-09-02T08:19:34.487Z,58.53
2022-09-02T08:22:43.384Z,59.33
2022-09-02T08:25:52.089Z,58.09
2022-09-02T08:29:00.786Z,57.77
2022-09-02T08:32:09.337Z,57.67
2022-09-02T08:35:16.870Z,57.24
2022-09-02T08:38:25.272Z,56.13
2022-09-02T08:41:33.342Z,56.84
2022-09-02T08:44:41.620Z,55.91
2022-09-02T08:47:50.614Z,54.97
2022-09-02T08:50:58.787Z,53.87
2022-09-02T08:54:06.517Z,53.77
2022-09-02T08:57:14.917Z,53.17
2022-09-02T09:00:23.031Z,53.25
2022-09-02T09:03:31.219Z,52.82
2022-09-02T09:06:39.337Z,52.09
2022-09-02T09:09:47.752Z,51.09
2022-09-02T09:12:55.571Z,50.57
2022-09-02T09:16:03.023Z,49.26
2022-09-02T09:19:11.256Z,48.76
2022-09-02T09:22:19.006Z,48.24
2022-09-02T09:25:28.096Z,47.34
2022-09-02T09:28:36.148Z,47.64
2022-09-02T09:31:43.499Z,47.72
2022-09-02T09:34:51.682Z,47.31
2022-09-02T09:37:59.640Z,45.81
2022-09-02T09:41:07.112Z,46.99
2022-09-02T09:44:15.444Z,46.00
2022-09-02T09:47:22.855Z,45.67
2022-09-02T09:50:31.154Z,45.29
2022-09-02T09:53:40.065Z,44.89
2022-09-02T09:56:47.958Z,43.90
2022-09-02T09:59:56.960Z,42.87
2022-09-02T10:03:04.596Z,43.27
2022-09-02T10:06:12.648Z,43.75
2022-09-02T10:09:20.271Z,42.63
2022-09-02T10:12:27.964Z,42.91
2022-09-02T10:15:36.124Z,42.51
2022-09-02T10:18:43.474Z,42.81
2022-09-02T10:21:52.765Z,42.91
2022-09-02T10:25:00.445Z,43.51
2022-09-02T10:28:07.860Z,42.40
2022-09-02T10:31:15.879Z,41.09
2022-09-02T10:34:23.691Z,40.70
2022-09-02T10:37:31.091Z,41.38
2022-09-02T10:40:39.506Z,40.88
2022-09-02T10:43:47.546Z,40.26
2022-09-02T10:46:55.235Z,38.96
2022-09-02T10:50:03.676Z,39.06
2022-09-02T10:53:11.226Z,39.04
2022-09-02T10:56:19.529Z,38.45
2022-09-02T10:59:27.962Z,39.16
2022-09-02T11:02:35.752Z,39.66
2022-09-02T11:05:44.463Z,38.37
2022-09-02T11:08:52.671Z,39.50
2022-09-02T11:12:00.751Z,39.26
2022-09-02T11:15:09.305Z,38.84
2022-09-02T11:18:17.407Z,38.21
2022-09-02T11:21:25.718Z,37.79
2022-09-02T11:24:29.149Z,37.79
2022-09-02T11:27:44.626Z,36.80
2022-09-02T11:30:42.154Z,37.90
2022-09-02T11:33:50.351Z,37.60
2022-09-02T11:36:58.613Z,37.38
2022-09-02T11:40:30.554Z,36.98
2022-09-02T11:43:12.672Z,35.79
2022-09-02T11:46:21.590Z,35.99
2022-09-02T11:49:29.397Z,36.58
2022-09-02T11:52:37.872Z,36.47
2022-09-02T11:55:45.510Z,36.55
2022-09-02T11:58:53.850Z,35.75
2022-09-02T12:02:02.043Z,36.36
2022-09-02T12:05:10.467Z,35.79
2022-09-02T12:08:19.854Z,37.10
2022-09-02T12:11:28.009Z,36.08
2022-09-02T12:14:37.055Z,35.36
2022-09-02T12:17:44.740Z,34.15
2022-09-02T12:20:52.850Z,33.54
2022-09-02T12:24:00.711Z,34.22
2022-09-02T12:27:08.443Z,33.80
2022-09-02T12:30:16.283Z,33.50
2022-09-02T12:33:24.735Z,34.10
2022-09-02T12:36:32.597Z,32.48
2022-09-02T12:39:40.449Z,32.67
2022-09-02T12:42:48.640Z,32.65
2022-09-02T12:45:56.011Z,31.84
2022-09-02T12:49:04.161Z,32.14
2022-09-02T12:52:12.045Z,32.56
2022-09-02T12:55:19.334Z,32.89
2022-09-02T12:58:27.303Z,32.58
2022-09-02T13:01:35.120Z,33.09
2022-09-02T13:04:42.948Z,33.80
2022-09-02T13:07:51.160Z,33.11
2022-09-02T13:10:58.802Z,33.22
2022-09-02T13:14:06.603Z,33.72
2022-09-02T13:17:33.037Z,34.03
2022-09-02T13:20:20.047Z,34.03
2022-09-02T13:23:31.251Z,34.03
2022-09-02T13:26:48.346Z,33.75
2022-09-02T13:29:33.729Z,33.87
2022-09-02T13:32:41.570Z,34.36
2022-09-02T13:35:49.761Z,34.38
2022-09-02T13:38:57.488Z,34.36
2022-09-02T13:42:05.315Z,34.13
2022-09-02T13:45:07.615Z,32.51
2022-09-02T13:48:15.129Z,32.63
2022-09-02T13:51:23.049Z,32.84
2022-09-02T13:54:30.739Z,33.44
2022-09-02T13:57:38.057Z,33.36
2022-09-02T14:00:46.094Z,33.37
2022-09-02T14:03:53.982Z,34.20
2022-09-02T14:07:01.844Z,34.91
2022-09-02T14:10:09.980Z,34.61
2022-09-02T14:13:17.378Z,34.91
2022-09-02T14:16:25.737Z,35.21
2022-09-02T14:19:33.816Z,35.31
2022-09-02T14:22:41.257Z,34.88
2022-09-02T14:25:49.232Z,34.36
2022-09-02T14:28:56.866Z,34.98
2022-09-02T14:32:04.414Z,35.57
2022-09-02T14:35:12.545Z,34.88
2022-09-02T14:38:20.218Z,34.34
2022-09-02T14:41:27.988Z,33.73
2022-09-02T14:44:35.839Z,33.83
2022-09-02T14:47:43.963Z,33.95
2022-09-02T14:50:51.851Z,34.78
2022-09-02T14:53:59.420Z,35.39
2022-09-02T14:57:07.634Z,35.50
2022-09-02T15:00:15.385Z,35.63
2022-09-02T15:03:23.117Z,35.42
2022-09-02T15:06:31.207Z,35.01
2022-09-02T15:09:38.548Z,35.31
2022-09-02T15:12:46.610Z,34.91
2022-09-02T15:15:54.431Z,35.41
2022-09-02T15:19:01.856Z,35.72
2022-09-02T15:22:10.034Z,36.25
2022-09-02T15:25:19.515Z,35.97
2022-09-02T15:28:27.311Z,36.87
2022-09-02T15:31:35.887Z,36.97
2022-09-02T15:34:43.868Z,36.57
2022-09-02T15:37:52.411Z,36.87
2022-09-02T15:41:01.271Z,36.87
2022-09-02T15:44:08.707Z,36.97
2022-09-02T15:47:16.914Z,37.49
2022-09-02T15:50:25.462Z,37.37
2022-09-02T15:53:25.306Z,37.17
2022-09-02T15:56:34.338Z,36.46
2022-09-02T15:59:42.439Z,35.94
2022-09-02T16:02:49.958Z,35.63
2022-09-02T16:05:57.740Z,35.22
2022-09-02T16:09:05.214Z,35.33
2022-09-02T16:12:12.644Z,35.13
2022-09-02T16:15:20.566Z,35.03
2022-09-02T16:18:27.966Z,35.05
2022-09-02T16:21:35.926Z,35.66
2022-09-02T16:24:44.029Z,35.75
2022-09-02T16:27:51.512Z,35.97
2022-09-02T16:30:59.327Z,36.49
2022-09-02T16:34:07.671Z,35.97
2022-09-02T16:37:15.188Z,36.18
2022-09-02T16:40:23.397Z,35.88
2022-09-02T16:43:31.325Z,36.39
2022-09-02T16:46:39.087Z,36.49
2022-09-02T16:49:46.888Z,36.61
2022-09-02T16:52:54.639Z,37.01
2022-09-02T16:56:02.370Z,37.10
2022-09-02T16:59:10.690Z,37.42
2022-09-02T17:02:19.078Z,37.72
2022-09-02T17:05:27.574Z,38.24
2022-09-02T17:08:35.822Z,38.46
2022-09-02T17:11:43.623Z,39.06
2022-09-02T17:14:51.353Z,38.76
2022-09-02T17:17:59.168Z,39.18
2022-09-02T17:21:06.899Z,39.98
2022-09-02T17:24:14.232Z,39.79
2022-09-02T17:27:21.913Z,39.72
2022-09-02T17:30:29.728Z,39.91
2022-09-02T17:33:37.084Z,40.33
2022-09-02T17:36:45.214Z,40.73
2022-09-02T17:39:53.634Z,40.95
2022-09-02T17:43:01.058Z,41.17
2022-09-02T17:46:09.271Z,41.67
2022-09-02T17:49:17.844Z,42.07
2022-09-02T17:52:25.762Z,42.60
2022-09-02T17:55:34.073Z,42.80
2022-09-02T17:58:41.454Z,42.82
2022-09-02T18:01:49.591Z,43.12
2022-09-02T18:04:57.776Z,43.14
2022-09-02T18:08:05.079Z,43.44
2022-09-02T18:11:13.339Z,43.76
2022-09-02T18:14:21.078Z,44.16
2022-09-02T18:17:28.899Z,44.59
2022-09-02T18:20:36.952Z,44.91
2022-09-02T18:23:44.702Z,45.10
2022-09-02T18:26:52.253Z,45.31
2022-09-02T18:30:00.554Z,45.73
2022-09-02T18:33:08.617Z,46.03
2022-09-02T18:36:16.606Z,46.36
2022-09-02T18:39:24.306Z,46.56
2022-09-02T18:42:32.119Z,46.86
2022-09-02T18:45:39.851Z,47.26
2022-09-02T18:48:47.460Z,47.89
2022-09-02T18:51:50.651Z,47.89
2022-09-02T18:54:58.502Z,48.29
2022-09-02T18:58:06.694Z,48.41
2022-09-02T19:01:14.559Z,48.72
2022-09-02T19:04:25.121Z,49.32
2022-09-02T19:07:24.635Z,49.12
2022-09-02T19:10:32.007Z,49.12
2022-09-02T19:13:40.149Z,49.02
2022-09-02T19:16:48.369Z,49.42
2022-09-02T19:19:55.860Z,49.35
2022-09-02T19:23:04.108Z,49.24
2022-09-02T19:26:11.952Z,49.24
2022-09-02T19:29:19.738Z,49.24
2022-09-02T19:32:21.735Z,49.35
2022-09-02T19:35:29.549Z,49.85
2022-09-02T19:38:37.253Z,49.77
2022-09-02T19:41:45.547Z,49.97
2022-09-02T19:44:52.868Z,49.87
2022-09-02T19:48:16.948Z,50.07
2022-09-02T19:51:06.700Z,50.17
2022-09-02T19:54:14.130Z,50.37
2022-09-02T19:57:22.214Z,50.50
2022-09-02T20:00:29.851Z,50.80
2022-09-02T20:03:37.661Z,51.10
2022-09-02T20:06:45.812Z,51.40
2022-09-02T20:09:53.607Z,51.53
2022-09-02T20:13:01.576Z,51.73
2022-09-02T20:16:09.435Z,51.84
2022-09-02T20:19:17.118Z,52.84
2022-09-02T20:22:24.940Z,51.93
2022-09-02T20:25:32.331Z,52.22
2022-09-02T20:28:45.016Z,52.11
2022-09-02T20:31:42.907Z,52.22
2022-09-02T20:34:50.823Z,52.11
2022-09-02T20:37:58.794Z,51.99
2022-09-02T20:41:06.306Z,51.68
2022-09-02T20:44:14.358Z,51.68
2022-09-02T20:47:22.247Z,51.59
2022-09-02T20:50:30.123Z,51.56
2022-09-02T20:53:38.266Z,51.36
2022-09-02T20:56:45.761Z,51.66
2022-09-02T20:59:53.641Z,51.76
2022-09-02T21:03:02.063Z,51.86
2022-09-02T21:06:09.671Z,51.66
2022-09-02T21:09:18.272Z,52.17
2022-09-02T21:12:26.238Z,51.97
2022-09-02T21:15:34.188Z,52.26
2022-09-02T21:18:42.364Z,52.39
2022-09-02T21:21:50.197Z,52.80
2022-09-02T21:24:58.051Z,52.80
2022-09-02T21:28:05.890Z,53.12
2022-09-02T21:31:14.102Z,53.42
2022-09-02T21:34:22.162Z,53.63
2022-09-02T21:37:30.172Z,53.75
2022-09-02T21:40:38.064Z,53.96
2022-09-02T21:43:45.904Z,54.16
2022-09-02T21:46:54.005Z,54.36
2022-09-02T21:50:01.817Z,54.36
2022-09-02T21:53:09.719Z,54.68
2022-09-02T21:56:17.869Z,54.99
2022-09-02T21:59:25.272Z,55.09
2022-09-02T22:02:33.592Z,55.09
2022-09-02T22:05:41.792Z,55.19
2022-09-02T22:08:49.114Z,54.89
2022-09-02T22:11:57.162Z,55.29
2022-09-02T22:15:04.865Z,55.19
2022-09-02T22:18:12.594Z,55.32
2022-09-02T22:21:20.406Z,55.21
2022-09-02T22:24:28.241Z,55.62
2022-09-02T22:27:35.960Z,55.52
2022-09-02T22:30:43.790Z,55.65
2022-09-02T22:33:51.163Z,55.94
2022-09-02T22:36:58.808Z,56.05
2022-09-02T22:40:06.599Z,56.25
2022-09-02T22:43:14.831Z,56.38
2022-09-02T22:46:22.255Z,56.27
2022-09-02T22:49:30.014Z,56.48
2022-09-02T22:52:38.273Z,56.68
2022-09-02T22:55:47.097Z,56.78
2022-09-02T22:58:54.957Z,56.88
2022-09-02T23:02:02.800Z,56.68
2022-09-02T23:05:10.160Z,56.68
2022-09-02T23:08:18.350Z,56.38
2022-09-02T23:11:26.300Z,56.27
2022-09-02T23:14:33.981Z,56.18
2022-09-02T23:17:41.782Z,55.87
2022-09-02T23:20:49.576Z,56.00
2022-09-02T23:23:57.352Z,56.00
2022-09-02T23:27:05.105Z,55.90
2022-09-02T23:30:12.446Z,56.00
2022-09-02T23:33:22.989Z,56.00
2022-09-02T23:36:31.219Z,56.00
2022-09-02T23:39:38.686Z,56.53
2022-09-02T23:42:46.781Z,56.43
2022-09-02T23:45:54.581Z,56.53
2022-09-02T23:49:02.332Z,56.43
2022-09-02T23:52:10.353Z,56.84
2022-09-02T23:55:18.078Z,56.76
2022-09-02T23:58:25.752Z,56.86
